Time;durP1;ratioP1;P1;durP2;ratioP2;P2;SDS_P1;SDS_P2;PMS_P1;PMS_P2;Temp;Humidity;BMP_temperature;BMP_pressure;BME280_temperature;BME280_humidity;BME280_pressure;Samples;Min_cycle;Max_cycle;Signal;HPM_P1;HPM_P2
2022/09/24 00:01:52;;;;;;;9.07;8.17;;;13.40;99.90;;;;;;5077822;28;20464;-82
2022/09/24 00:04:22;;;;;;;7.67;6.97;;;13.50;99.90;;;;;;5075124;28;20564;-81
2022/09/24 00:06:50;;;;;;;8.10;7.40;;;13.50;99.90;;;;;;5074555;28;20452;-81
2022/09/24 00:09:21;;;;;;;8.77;7.93;;;13.50;99.90;;;;;;5078727;28;20458;-81
2022/09/24 00:11:51;;;;;;;8.53;7.73;;;13.40;99.90;;;;;;5078241;28;20448;-80
2022/09/24 00:14:20;;;;;;;7.90;7.10;;;13.40;99.90;;;;;;5076452;28;20509;-82
2022/09/24 00:16:48;;;;;;;8.50;7.20;;;13.40;99.90;;;;;;5073977;28;20461;-82
2022/09/24 00:19:18;;;;;;;8.37;7.47;;;13.40;99.90;;;;;;5080344;28;20474;-79
2022/09/24 00:21:46;;;;;;;8.17;7.47;;;13.50;99.90;;;;;;5077713;28;20517;-81
2022/09/24 00:26:48;;;;;;;8.17;7.57;;;13.50;99.90;;;;;;5074638;28;20477;-81
2022/09/24 00:27:05;;;;;;;8.93;8.13;;;13.40;99.90;;;;;;5080698;28;20877;-81
2022/09/24 00:29:34;;;;;;;8.47;7.73;;;13.30;99.90;;;;;;5076862;28;20464;-81
2022/09/24 00:32:05;;;;;;;8.53;7.23;;;13.20;1.00;;;;;;5078542;28;20454;-82
2022/09/24 00:34:35;;;;;;;7.73;7.13;;;13.20;1.00;;;;;;5076201;28;20469;-82
2022/09/24 00:37:03;;;;;;;7.30;6.63;;;13.20;1.00;;;;;;5084472;28;21021;-81
2022/09/24 00:39:31;;;;;;;8.27;7.67;;;13.20;1.00;;;;;;5078269;28;20463;-82
2022/09/24 00:41:59;;;;;;;8.80;8.17;;;13.10;1.00;;;;;;5089562;28;20458;-83
2022/09/24 00:44:53;;;;;;;7.70;6.93;;;13.10;1.00;;;;;;5078104;28;20460;-83
2022/09/24 00:47:32;;;;;;;7.13;6.70;;;13.20;1.00;;;;;;5078474;28;20548;-82
2022/09/24 00:50:12;;;;;;;7.50;6.80;;;13.20;99.90;;;;;;5079839;28;20511;-83
2022/09/24 00:52:45;;;;;;;8.20;7.60;;;13.00;1.00;;;;;;5075238;28;20518;-82
2022/09/24 00:55:15;;;;;;;7.90;7.30;;;13.00;1.00;;;;;;5078215;28;20586;-81
2022/09/24 00:57:44;;;;;;;8.17;7.40;;;13.10;99.90;;;;;;5080872;28;20979;-81
2022/09/24 01:00:14;;;;;;;8.40;7.70;;;13.00;1.00;;;;;;5075888;28;20451;-82
2022/09/24 01:02:46;;;;;;;8.07;7.47;;;13.00;1.00;;;;;;5072487;28;21077;-82
2022/09/24 01:05:15;;;;;;;7.50;7.00;;;13.00;99.90;;;;;;5076043;28;20477;-82
2022/09/24 01:07:47;;;;;;;8.53;7.73;;;12.90;1.00;;;;;;5077253;28;20440;-83
2022/09/24 01:10:46;;;;;;;8.50;7.90;;;12.70;99.90;;;;;;5073273;28;20996;-82
2022/09/24 01:13:18;;;;;;;7.70;7.17;;;12.60;1.00;;;;;;5078884;28;20503;-82
2022/09/24 01:15:51;;;;;;;8.70;7.80;;;12.70;99.90;;;;;;5076519;28;20471;-82
2022/09/24 01:18:29;;;;;;;7.33;6.73;;;12.60;99.90;;;;;;5077437;28;20465;-81
2022/09/24 01:21:18;;;;;;;8.07;7.57;;;12.60;1.00;;;;;;5077622;28;20463;-82
2022/09/24 01:24:11;;;;;;;8.37;7.60;;;12.50;1.00;;;;;;5085701;28;21250;-81
2022/09/24 01:26:51;;;;;;;10.43;7.67;;;12.60;99.90;;;;;;5075731;28;20520;-82
2022/09/24 01:29:36;;;;;;;9.23;7.90;;;12.60;99.90;;;;;;5080203;28;20445;-81
2022/09/24 01:32:07;;;;;;;8.57;7.87;;;12.60;99.90;;;;;;5073085;28;20966;-80
2022/09/24 01:34:40;;;;;;;7.93;7.37;;;12.60;99.90;;;;;;5075649;28;20476;-82
2022/09/24 01:37:09;;;;;;;7.77;7.17;;;12.50;27.50;;;;;;5083942;28;20865;-83
2022/09/24 01:39:38;;;;;;;7.63;7.00;;;12.60;99.90;;;;;;5083751;28;20867;-81
2022/09/24 01:42:09;;;;;;;8.07;7.23;;;12.50;1.00;;;;;;5084427;28;20461;-82
2022/09/24 01:44:41;;;;;;;8.77;7.97;;;12.50;1.00;;;;;;5079034;28;20478;-82
2022/09/24 01:47:11;;;;;;;8.20;7.50;;;12.50;99.90;;;;;;5078714;28;20450;-81
2022/09/24 01:49:40;;;;;;;9.30;7.73;;;12.70;1.00;;;;;;5074304;28;20533;-81
2022/09/24 01:52:10;;;;;;;9.57;8.77;;;12.50;1.00;;;;;;5078264;28;20962;-82
2022/09/24 01:54:42;;;;;;;9.07;8.27;;;12.40;20.00;;;;;;5079030;28;20646;-82
2022/09/24 01:57:15;;;;;;;6.77;6.20;;;12.30;99.90;;;;;;5080217;28;20446;-81
2022/09/24 01:59:49;;;;;;;7.53;6.83;;;12.30;99.90;;;;;;5082423;28;21334;-81
2022/09/24 02:02:26;;;;;;;8.27;7.67;;;12.40;1.00;;;;;;5078980;28;20508;-81
2022/09/24 02:04:59;;;;;;;8.50;7.80;;;12.40;1.00;;;;;;5075976;28;20472;-82
2022/09/24 02:07:33;;;;;;;7.97;7.27;;;12.30;99.90;;;;;;5074578;28;20458;-81
2022/09/24 02:10:02;;;;;;;8.63;7.83;;;12.20;1.00;;;;;;5075897;28;20438;-82
2022/09/24 02:12:36;;;;;;;10.33;8.20;;;12.20;99.90;;;;;;5082555;28;20613;-81
2022/09/24 02:15:10;;;;;;;8.73;7.80;;;12.30;99.90;;;;;;5074090;28;20489;-83
2022/09/24 02:17:40;;;;;;;8.23;7.47;;;12.40;1.00;;;;;;5072121;28;20458;-81
2022/09/24 02:20:13;;;;;;;8.10;7.40;;;12.60;99.90;;;;;;5071373;28;20590;-82
2022/09/24 02:22:43;;;;;;;8.37;7.60;;;12.70;1.00;;;;;;5077954;28;20524;-82
2022/09/24 02:25:15;;;;;;;7.93;7.23;;;12.70;1.00;;;;;;5066921;28;20544;-81
2022/09/24 02:27:43;;;;;;;8.93;8.13;;;12.60;1.00;;;;;;5072544;28;20524;-82
2022/09/24 02:30:13;;;;;;;7.50;6.83;;;12.50;87.30;;;;;;5078583;28;20498;-82
2022/09/24 02:32:43;;;;;;;7.70;7.10;;;12.50;99.90;;;;;;5070595;28;20485;-82
2022/09/24 02:35:11;;;;;;;8.60;7.50;;;12.50;99.90;;;;;;5069644;28;20483;-81
2022/09/24 02:37:42;;;;;;;7.63;7.13;;;12.60;99.90;;;;;;5073980;28;20520;-81
2022/09/24 02:40:13;;;;;;;7.93;7.23;;;12.50;99.90;;;;;;5075533;28;20468;-81
2022/09/24 02:42:42;;;;;;;8.93;8.23;;;12.50;99.90;;;;;;5077532;28;20450;-81
2022/09/24 02:45:13;;;;;;;8.10;7.60;;;12.60;99.90;;;;;;5073609;28;20813;-81
2022/09/24 02:47:41;;;;;;;9.10;8.40;;;12.70;99.90;;;;;;5071167;28;20497;-81
2022/09/24 02:50:10;;;;;;;8.90;8.10;;;12.60;99.90;;;;;;5081015;28;20467;-81
2022/09/24 02:52:38;;;;;;;8.87;8.00;;;12.60;1.00;;;;;;5078577;28;20476;-82
2022/09/24 02:55:06;;;;;;;9.20;8.40;;;12.70;78.30;;;;;;5076244;28;20478;-81
2022/09/24 02:57:34;;;;;;;8.70;8.03;;;12.80;99.90;;;;;;5079239;28;20471;-86
2022/09/24 03:00:04;;;;;;;8.60;7.90;;;12.90;1.00;;;;;;5073840;28;20450;-82
2022/09/24 03:02:34;;;;;;;8.17;7.57;;;12.80;99.90;;;;;;5074583;28;20549;-82
2022/09/24 03:05:02;;;;;;;8.43;7.60;;;12.80;99.90;;;;;;5077758;28;20485;-80
2022/09/24 03:07:30;;;;;;;8.47;7.80;;;12.70;1.00;;;;;;5077375;28;20544;-81
2022/09/24 03:09:58;;;;;;;7.87;7.10;;;12.70;99.90;;;;;;5073420;28;20480;-83
2022/09/24 03:12:26;;;;;;;8.50;7.80;;;12.60;99.90;;;;;;5071851;28;20485;-81
2022/09/24 03:14:54;;;;;;;8.07;7.37;;;12.60;99.90;;;;;;5076902;28;20526;-82
2022/09/24 03:17:22;;;;;;;9.00;7.17;;;12.70;1.00;;;;;;5073471;28;20542;-81
2022/09/24 03:19:52;;;;;;;7.70;7.07;;;12.70;1.00;;;;;;5081449;28;21004;-82
2022/09/24 03:22:20;;;;;;;7.93;7.20;;;12.70;1.00;;;;;;5077771;28;20492;-82
2022/09/24 03:24:48;;;;;;;7.80;7.07;;;12.60;99.90;;;;;;5078535;28;20540;-81
2022/09/24 03:27:16;;;;;;;8.03;7.20;;;12.60;99.90;;;;;;5078230;28;20462;-83
2022/09/24 03:32:32;;;;;;;7.83;7.07;;;12.50;99.90;;;;;;5075769;28;20515;-81
2022/09/24 03:35:02;;;;;;;7.93;6.90;;;12.40;99.90;;;;;;5070174;28;20486;-81
2022/09/24 03:37:31;;;;;;;7.73;7.13;;;12.40;99.90;;;;;;5074510;28;20567;-82
2022/09/24 03:39:59;;;;;;;7.33;6.73;;;12.40;1.00;;;;;;5077527;28;20446;-82
2022/09/24 03:42:28;;;;;;;7.20;6.70;;;12.40;1.00;;;;;;5073044;28;21105;-83
2022/09/24 03:44:56;;;;;;;7.67;7.10;;;12.60;99.90;;;;;;5080968;28;20478;-81
2022/09/24 03:47:24;;;;;;;7.93;7.30;;;12.60;99.90;;;;;;5077413;28;20616;-81
2022/09/24 03:49:52;;;;;;;7.87;7.27;;;12.40;1.00;;;;;;5080340;28;20450;-82
2022/09/24 03:52:21;;;;;;;7.43;6.73;;;12.40;1.00;;;;;;5073577;28;20459;-82
2022/09/24 03:54:50;;;;;;;8.20;7.60;;;12.50;1.00;;;;;;5079294;28;20570;-81
2022/09/24 03:57:18;;;;;;;7.23;6.67;;;12.50;1.00;;;;;;5071792;28;20452;-82
2022/09/24 03:59:46;;;;;;;8.10;7.50;;;12.50;99.90;;;;;;5073809;28;20516;-81
2022/09/24 04:02:14;;;;;;;7.13;6.63;;;12.50;1.00;;;;;;5068653;28;20493;-81
2022/09/24 04:04:42;;;;;;;8.33;7.63;;;12.50;1.00;;;;;;5074848;28;20561;-81
2022/09/24 04:07:11;;;;;;;8.73;8.00;;;12.60;1.00;;;;;;5083162;28;20455;-81
2022/09/24 04:09:40;;;;;;;8.00;7.43;;;12.50;99.90;;;;;;5069751;28;20491;-82
2022/09/24 04:12:08;;;;;;;8.50;7.80;;;12.50;99.90;;;;;;5080217;28;20910;-81
2022/09/24 04:14:37;;;;;;;9.73;7.70;;;12.60;99.90;;;;;;5066495;28;20506;-81
2022/09/24 04:17:05;;;;;;;7.60;7.03;;;12.70;1.00;;;;;;5072913;28;20453;-81
2022/09/24 04:19:33;;;;;;;8.00;7.30;;;12.70;1.00;;;;;;5080717;28;20998;-81
2022/09/24 04:22:01;;;;;;;8.67;7.97;;;12.70;1.00;;;;;;5073408;28;20480;-81
2022/09/24 04:24:29;;;;;;;8.17;7.33;;;12.70;99.90;;;;;;5074570;28;20467;-81
2022/09/24 04:26:59;;;;;;;8.20;7.60;;;12.70;1.00;;;;;;5078686;28;20454;-81
2022/09/24 04:29:27;;;;;;;8.57;7.13;;;12.60;99.90;;;;;;5077236;28;20877;-81
2022/09/24 04:31:56;;;;;;;8.40;7.80;;;12.60;1.00;;;;;;5071707;28;20490;-81
2022/09/24 04:34:24;;;;;;;8.53;7.73;;;12.60;1.00;;;;;;5073605;28;21074;-81
2022/09/24 04:36:52;;;;;;;8.60;7.90;;;12.60;1.00;;;;;;5079365;28;20482;-81
2022/09/24 04:39:25;;;;;;;9.30;8.37;;;12.40;92.30;;;;;;5072845;28;20441;-80
2022/09/24 04:41:53;;;;;;;8.53;7.80;;;12.40;99.90;;;;;;5073432;28;20442;-80
2022/09/24 04:44:23;;;;;;;8.40;7.70;;;12.40;99.90;;;;;;5079012;28;20490;-81
2022/09/24 04:46:51;;;;;;;8.33;7.73;;;12.50;99.90;;;;;;5085161;28;20542;-81
2022/09/24 04:49:19;;;;;;;7.63;6.93;;;12.40;1.00;;;;;;5078861;28;20455;-82
2022/09/24 04:51:47;;;;;;;8.50;7.80;;;12.50;99.90;;;;;;5072047;28;20509;-82
2022/09/24 04:54:17;;;;;;;8.60;7.70;;;12.60;99.90;;;;;;5080950;28;20459;-82
2022/09/24 04:56:45;;;;;;;11.60;10.40;;;12.50;1.00;;;;;;5082070;28;20902;-82
2022/09/24 04:59:13;;;;;;;10.87;9.87;;;12.40;57.50;;;;;;5077717;28;20447;-81
2022/09/24 05:01:42;;;;;;;11.63;10.53;;;12.50;1.00;;;;;;5085005;28;20553;-82
2022/09/24 05:04:10;;;;;;;11.00;9.90;;;12.50;1.00;;;;;;5072435;28;20520;-81
2022/09/24 05:06:38;;;;;;;17.87;16.13;;;12.40;27.10;;;;;;5074789;28;20474;-81
2022/09/24 05:09:06;;;;;;;11.40;10.40;;;12.50;1.00;;;;;;5078819;28;20464;-82
2022/09/24 05:11:39;;;;;;;10.30;9.50;;;12.50;25.60;;;;;;5085389;28;20501;-81
2022/09/24 05:14:07;;;;;;;9.80;8.90;;;12.50;99.90;;;;;;5077871;28;20491;-82
2022/09/24 05:16:35;;;;;;;10.10;9.30;;;12.60;2.70;;;;;;5079735;28;21198;-82
2022/09/24 05:19:05;;;;;;;9.07;8.40;;;12.60;99.90;;;;;;5072518;28;21038;-82
2022/09/24 05:21:33;;;;;;;15.57;14.37;;;12.60;99.90;;;;;;5078655;28;21113;-81
2022/09/24 05:24:01;;;;;;;14.47;13.17;;;12.60;50.40;;;;;;5075077;28;20447;-81
2022/09/24 05:29:15;;;;;;;17.20;15.80;;;12.60;99.90;;;;;;5078116;28;20567;-82
2022/09/24 05:31:43;;;;;;;17.60;16.30;;;12.50;1.00;;;;;;5070121;28;20450;-80
2022/09/24 05:34:13;;;;;;;17.37;16.00;;;12.60;1.00;;;;;;5075565;28;20504;-81
2022/09/24 05:36:42;;;;;;;16.03;14.37;;;12.60;99.90;;;;;;5076089;28;21009;-81
2022/09/24 05:39:11;;;;;;;280.63;161.07;;;12.60;99.90;;;;;;5077216;28;20456;-80
2022/09/24 05:41:40;;;;;;;56.57;40.43;;;12.70;99.90;;;;;;5078505;28;20524;-81
2022/09/24 05:44:09;;;;;;;55.20;39.70;;;12.80;1.00;;;;;;5077743;28;20456;-81
2022/09/24 05:46:38;;;;;;;42.07;33.23;;;12.90;24.80;;;;;;5075506;28;20850;-80
2022/09/24 05:49:06;;;;;;;38.27;27.93;;;12.80;99.90;;;;;;5067692;28;20487;-80
2022/09/24 05:51:35;;;;;;;31.47;26.20;;;12.80;1.00;;;;;;5064544;28;20473;-81
2022/09/24 05:54:04;;;;;;;24.60;20.70;;;12.70;1.00;;;;;;5072142;28;20534;-82
2022/09/24 05:56:32;;;;;;;21.30;15.50;;;12.70;99.90;;;;;;5077062;28;20474;-81
2022/09/24 05:59:00;;;;;;;23.53;18.73;;;12.80;1.00;;;;;;5076042;28;20492;-83
2022/09/24 06:01:29;;;;;;;31.27;25.03;;;12.90;1.00;;;;;;5076068;28;20458;-81
2022/09/24 06:03:58;;;;;;;37.40;28.30;;;12.90;99.90;;;;;;5070678;28;20464;-81
2022/09/24 06:06:26;;;;;;;42.23;31.07;;;12.90;74.20;;;;;;5072826;28;20450;-80
2022/09/24 06:08:56;;;;;;;27.60;21.77;;;13.00;99.90;;;;;;5070895;28;20520;-80
2022/09/24 06:11:24;;;;;;;15.10;13.47;;;12.90;99.90;;;;;;5076454;28;20525;-81
2022/09/24 06:13:52;;;;;;;10.17;9.30;;;12.90;12.70;;;;;;5068077;28;20856;-81
2022/09/24 06:16:21;;;;;;;35.73;25.37;;;13.10;99.90;;;;;;5080795;28;20510;-80
2022/09/24 06:18:49;;;;;;;25.43;18.93;;;13.20;1.00;;;;;;5082594;28;20509;-82
2022/09/24 06:21:17;;;;;;;19.03;16.20;;;13.30;99.90;;;;;;5076955;28;20477;-81
2022/09/24 06:23:46;;;;;;;16.60;15.00;;;13.20;99.90;;;;;;5074808;28;20867;-80
2022/09/24 06:26:15;;;;;;;13.83;12.50;;;13.20;1.00;;;;;;5072156;28;20468;-79
2022/09/24 06:28:43;;;;;;;12.77;11.33;;;13.40;99.90;;;;;;5076626;28;20536;-79
2022/09/24 06:31:11;;;;;;;11.10;10.10;;;13.60;1.00;;;;;;5077661;28;20447;-80
2022/09/24 06:33:40;;;;;;;12.07;10.97;;;13.70;1.00;;;;;;5075692;28;20470;-79
2022/09/24 06:36:09;;;;;;;12.83;11.83;;;13.60;99.90;;;;;;5077861;28;20485;-80
2022/09/24 06:38:39;;;;;;;10.37;9.67;;;13.70;99.90;;;;;;5072182;28;20460;-80
2022/09/24 06:41:08;;;;;;;9.73;8.93;;;13.60;1.00;;;;;;5079573;28;20477;-81
2022/09/24 06:43:38;;;;;;;10.70;9.90;;;13.70;1.00;;;;;;5078210;28;20993;-81
2022/09/24 06:46:06;;;;;;;10.43;9.60;;;13.70;1.00;;;;;;5073681;28;20991;-80
2022/09/24 06:48:36;;;;;;;9.93;9.07;;;13.70;1.00;;;;;;5079145;28;20487;-80
2022/09/24 06:51:05;;;;;;;10.77;9.87;;;13.80;1.00;;;;;;5076954;28;21120;-79
2022/09/24 06:53:33;;;;;;;11.57;10.33;;;13.90;47.40;;;;;;5074674;28;20442;-80
2022/09/24 06:56:02;;;;;;;10.77;9.90;;;14.00;1.00;;;;;;5083139;28;22424;-80
2022/09/24 06:58:30;;;;;;;10.87;10.10;;;14.00;1.00;;;;;;5070188;28;20455;-80
2022/09/24 07:01:02;;;;;;;11.83;10.80;;;14.10;1.00;;;;;;5072041;28;20886;-80
2022/09/24 07:03:32;;;;;;;10.97;10.00;;;14.10;1.00;;;;;;5068106;28;20818;-81
2022/09/24 07:06:02;;;;;;;9.80;9.00;;;14.10;1.00;;;;;;5075993;28;20562;-79
2022/09/24 07:08:30;;;;;;;10.93;9.80;;;14.20;1.00;;;;;;5069609;28;20525;-79
2022/09/24 07:10:59;;;;;;;10.17;9.03;;;14.20;1.00;;;;;;5069774;28;20489;-79
2022/09/24 07:13:27;;;;;;;11.30;10.30;;;14.20;1.00;;;;;;5072433;28;20555;-80
2022/09/24 07:15:55;;;;;;;15.00;13.67;;;14.20;1.00;;;;;;5067385;28;20472;-81
2022/09/24 07:18:24;;;;;;;10.77;9.97;;;14.30;1.00;;;;;;5076630;28;20834;-80
2022/09/24 07:20:53;;;;;;;10.93;9.10;;;14.30;1.00;;;;;;5078185;28;20460;-80
2022/09/24 07:23:22;;;;;;;9.37;8.73;;;14.30;1.00;;;;;;5080447;28;20946;-80
2022/09/24 07:25:54;;;;;;;9.03;8.33;;;14.40;99.90;;;;;;5068943;28;20471;-79
2022/09/24 07:28:23;;;;;;;9.33;8.73;;;14.40;99.90;;;;;;5081397;28;20455;-79
2022/09/24 07:30:57;;;;;;;8.77;8.00;;;14.50;99.90;;;;;;5077218;28;20453;-80
2022/09/24 07:33:27;;;;;;;10.33;9.53;;;14.50;99.90;;;;;;5074245;28;20460;-80
2022/09/24 07:35:55;;;;;;;10.03;9.10;;;14.50;99.90;;;;;;5071248;28;20541;-80
2022/09/24 07:38:24;;;;;;;9.37;8.80;;;14.40;1.90;;;;;;5061990;28;20985;-79
2022/09/24 07:40:53;;;;;;;8.80;8.10;;;14.50;99.90;;;;;;5068352;28;20968;-80
2022/09/24 07:43:21;;;;;;;9.00;8.50;;;14.60;99.90;;;;;;5064585;28;20487;-80
2022/09/24 07:45:49;;;;;;;7.97;7.30;;;14.60;99.90;;;;;;5066375;28;20517;-81
2022/09/24 07:48:18;;;;;;;7.70;7.17;;;14.60;99.90;;;;;;5072468;28;20456;-79
2022/09/24 07:50:47;;;;;;;7.53;7.00;;;14.60;99.90;;;;;;5067407;28;20457;-81
2022/09/24 07:53:15;;;;;;;6.80;6.50;;;14.60;99.90;;;;;;5073743;28;20520;-82
2022/09/24 07:55:44;;;;;;;7.40;7.00;;;14.70;2.60;;;;;;5068822;28;20474;-81
2022/09/24 07:58:13;;;;;;;6.70;6.40;;;14.70;99.90;;;;;;5068780;28;20530;-80
2022/09/24 08:00:42;;;;;;;7.50;7.10;;;14.70;1.00;;;;;;5069443;28;21759;-80
2022/09/24 08:03:10;;;;;;;6.57;6.17;;;14.80;35.70;;;;;;5076885;28;20854;-79
2022/09/24 08:05:44;;;;;;;7.40;7.00;;;14.80;97.70;;;;;;5076062;28;20479;-79
2022/09/24 08:08:14;;;;;;;6.70;6.30;;;14.80;99.90;;;;;;5070683;28;20457;-80
2022/09/24 08:10:43;;;;;;;8.77;8.00;;;14.80;99.90;;;;;;5081667;28;20548;-80
2022/09/24 08:13:11;;;;;;;7.20;6.90;;;14.80;99.90;;;;;;5073843;28;20486;-79
2022/09/24 08:15:39;;;;;;;6.33;5.93;;;14.80;99.90;;;;;;5078509;28;20477;-80
2022/09/24 08:18:07;;;;;;;7.20;6.70;;;14.80;99.90;;;;;;5073751;28;20485;-79
2022/09/24 08:20:38;;;;;;;7.97;7.47;;;14.80;99.90;;;;;;5067718;28;20461;-80
2022/09/24 08:23:08;;;;;;;7.40;7.00;;;14.90;1.00;;;;;;5073294;28;20455;-80
2022/09/24 08:25:39;;;;;;;7.63;7.23;;;14.90;99.90;;;;;;5078319;28;20830;-79
2022/09/24 08:28:10;;;;;;;7.23;6.63;;;14.80;1.00;;;;;;5076278;28;20506;-79
2022/09/24 08:30:39;;;;;;;8.50;8.07;;;14.80;1.00;;;;;;5076746;28;20834;-79
2022/09/24 08:33:08;;;;;;;7.83;7.43;;;14.70;99.90;;;;;;5073727;28;20475;-80
2022/09/24 08:35:38;;;;;;;7.80;7.50;;;14.80;99.90;;;;;;5085144;28;20477;-80
2022/09/24 08:38:07;;;;;;;7.83;7.43;;;14.70;99.90;;;;;;5089264;28;20580;-81
2022/09/24 08:40:42;;;;;;;8.33;7.83;;;14.70;99.90;;;;;;5075963;28;20457;-80
2022/09/24 08:43:28;;;;;;;8.20;7.70;;;14.70;1.00;;;;;;5076242;28;20474;-80
2022/09/24 08:48:50;;;;;;;9.60;9.00;;;14.70;20.40;;;;;;5084832;28;20460;-80
2022/09/24 08:51:22;;;;;;;9.47;8.77;;;14.80;1.00;;;;;;5080304;28;20537;-80
2022/09/24 08:53:55;;;;;;;9.93;9.43;;;14.80;99.90;;;;;;5077576;28;20511;-80
2022/09/24 08:56:27;;;;;;;9.43;8.93;;;14.70;22.20;;;;;;5069804;28;20477;-81
2022/09/24 08:58:59;;;;;;;9.27;8.67;;;14.70;1.00;;;;;;5077126;28;20473;-80
2022/09/24 09:01:37;;;;;;;8.77;8.23;;;14.80;1.00;;;;;;5073427;28;20892;-80
2022/09/24 09:04:18;;;;;;;9.90;9.00;;;14.80;99.90;;;;;;5081369;28;20506;-81
2022/09/24 09:07:07;;;;;;;10.40;9.80;;;14.70;1.00;;;;;;5082907;28;20475;-80
2022/09/24 09:09:44;;;;;;;10.30;9.70;;;14.80;99.90;;;;;;5069426;28;20474;-79
2022/09/24 09:12:17;;;;;;;11.07;10.47;;;14.80;99.90;;;;;;5070562;28;20461;-80
2022/09/24 09:14:50;;;;;;;10.40;9.80;;;14.70;99.90;;;;;;5067818;28;20474;-80
2022/09/24 09:17:31;;;;;;;12.07;10.97;;;14.60;99.90;;;;;;5074792;28;21360;-80
2022/09/24 09:20:03;;;;;;;13.73;12.93;;;14.70;99.90;;;;;;5063980;28;20503;-81
2022/09/24 09:22:37;;;;;;;12.13;11.63;;;14.70;1.00;;;;;;5068479;28;20494;-80
2022/09/24 09:25:17;;;;;;;13.30;12.33;;;14.70;1.00;;;;;;5064152;28;20554;-79
2022/09/24 09:27:49;;;;;;;12.27;11.67;;;14.70;1.00;;;;;;5065698;28;20484;-80
2022/09/24 09:30:20;;;;;;;11.30;10.80;;;14.70;1.00;;;;;;5065571;28;20521;-80
2022/09/24 09:33:16;;;;;;;13.90;13.00;;;14.70;1.00;;;;;;5067240;28;20443;-80
2022/09/24 09:35:52;;;;;;;12.23;11.73;;;14.70;1.00;;;;;;5067588;28;20479;-80
2022/09/24 09:38:25;;;;;;;13.90;13.30;;;14.90;1.00;;;;;;5066783;28;20490;-80
2022/09/24 09:41:02;;;;;;;12.77;11.97;;;14.90;1.00;;;;;;5068506;28;20511;-80
2022/09/24 09:43:32;;;;;;;13.10;12.50;;;14.80;1.00;;;;;;5067406;28;21067;-80
2022/09/24 09:46:10;;;;;;;13.50;12.30;;;14.90;1.00;;;;;;5066605;28;20485;-81
2022/09/24 09:48:45;;;;;;;12.50;11.90;;;14.90;1.00;;;;;;5069933;28;20905;-80
2022/09/24 09:51:19;;;;;;;13.33;12.70;;;15.00;1.00;;;;;;5066722;28;20512;-78
2022/09/24 09:53:57;;;;;;;13.77;13.10;;;15.10;1.00;;;;;;5065694;28;20461;-79
2022/09/24 09:56:28;;;;;;;13.53;12.80;;;15.20;1.00;;;;;;5066333;28;20599;-80
2022/09/24 09:59:06;;;;;;;13.23;12.70;;;15.20;1.00;;;;;;5068633;28;20535;-79
2022/09/24 10:01:39;;;;;;;13.63;12.83;;;15.20;1.00;;;;;;5067541;28;20465;-80
2022/09/24 10:04:27;;;;;;;12.87;12.43;;;15.20;1.00;;;;;;5069893;28;20457;-81
2022/09/24 10:07:04;;;;;;;12.93;12.43;;;15.20;1.00;;;;;;5069983;28;20535;-80
2022/09/24 10:09:33;;;;;;;13.00;12.40;;;15.20;1.00;;;;;;5072142;28;20473;-78
2022/09/24 10:12:16;;;;;;;13.90;13.40;;;15.20;1.00;;;;;;5067526;28;20474;-82
2022/09/24 10:14:57;;;;;;;13.93;13.23;;;15.20;1.00;;;;;;5064975;28;20889;-79
2022/09/24 10:17:30;;;;;;;12.63;12.13;;;15.20;1.00;;;;;;5063682;28;20451;-81
2022/09/24 10:20:01;;;;;;;12.47;11.97;;;15.10;1.00;;;;;;5068524;28;20477;-79
2022/09/24 10:22:30;;;;;;;12.50;11.90;;;15.20;1.00;;;;;;5073707;28;20476;-80
2022/09/24 10:25:00;;;;;;;12.53;12.10;;;15.20;1.00;;;;;;5075204;28;20578;-79
2022/09/24 10:27:33;;;;;;;12.60;12.10;;;15.10;1.00;;;;;;5063714;28;21047;-79
2022/09/24 10:32:59;;;;;;;11.80;11.40;;;14.90;1.00;;;;;;5067433;28;20533;-81
2022/09/24 10:35:29;;;;;;;13.83;13.13;;;15.00;1.00;;;;;;5065971;28;20474;-79
2022/09/24 10:37:59;;;;;;;14.00;13.30;;;15.00;1.00;;;;;;5064558;28;20487;-79
2022/09/24 10:40:29;;;;;;;13.47;12.87;;;15.00;1.00;;;;;;5070793;28;20473;-81
2022/09/24 10:43:00;;;;;;;14.40;13.70;;;15.10;1.00;;;;;;5083328;28;20455;-79
2022/09/24 10:45:52;;;;;;;14.07;13.37;;;15.00;1.00;;;;;;5072022;28;20491;-79
2022/09/24 10:48:26;;;;;;;14.20;13.60;;;15.00;1.00;;;;;;5073149;28;20458;-79
2022/09/24 10:51:02;;;;;;;14.63;14.03;;;15.10;1.00;;;;;;5082430;28;20496;-79
2022/09/24 10:53:42;;;;;;;15.50;14.90;;;15.10;1.00;;;;;;5066653;28;20448;-79
2022/09/24 10:56:22;;;;;;;15.83;14.97;;;15.20;1.00;;;;;;5064362;28;20481;-79
2022/09/24 10:59:19;;;;;;;15.20;14.47;;;15.40;1.00;;;;;;5077108;28;20583;-79
2022/09/24 11:02:00;;;;;;;14.93;14.33;;;15.40;1.00;;;;;;5070582;28;21352;-80
2022/09/24 11:04:43;;;;;;;15.67;14.80;;;15.60;1.00;;;;;;5069763;28;20507;-80
2022/09/24 11:07:36;;;;;;;15.67;15.10;;;15.60;1.00;;;;;;5072468;28;20932;-80
2022/09/24 11:10:16;;;;;;;16.30;15.60;;;15.60;1.00;;;;;;5075587;28;20465;-81
2022/09/24 11:12:58;;;;;;;14.93;14.33;;;15.60;1.00;;;;;;5070485;28;20453;-79
2022/09/24 11:15:43;;;;;;;15.60;14.90;;;15.50;1.00;;;;;;5078888;28;20801;-80
2022/09/24 11:18:27;;;;;;;16.10;15.47;;;15.70;1.00;;;;;;5079524;28;20862;-80
2022/09/24 11:21:03;;;;;;;16.20;15.43;;;15.60;1.00;;;;;;5069621;28;20453;-80
2022/09/24 11:24:06;;;;;;;16.23;15.53;;;15.80;1.00;;;;;;5071157;28;20522;-79
2022/09/24 11:26:48;;;;;;;15.73;15.13;;;15.80;1.00;;;;;;5039450;28;20460;-80
2022/09/24 11:29:30;;;;;;;17.77;16.87;;;15.70;1.00;;;;;;5077789;28;20462;-80
2022/09/24 11:32:10;;;;;;;17.67;16.87;;;15.90;1.00;;;;;;5072195;28;20497;-79
2022/09/24 11:35:06;;;;;;;17.27;16.57;;;16.10;1.00;;;;;;5090572;28;20465;-81
2022/09/24 11:37:52;;;;;;;17.40;16.70;;;16.20;1.00;;;;;;5082487;28;20468;-80
2022/09/24 11:40:31;;;;;;;18.07;17.20;;;16.30;99.90;;;;;;5077140;28;20583;-80
2022/09/24 11:43:14;;;;;;;16.67;16.07;;;16.20;1.00;;;;;;5072922;28;20482;-78
2022/09/24 11:45:52;;;;;;;16.57;15.87;;;16.20;1.00;;;;;;5071043;28;20994;-81
2022/09/24 11:48:45;;;;;;;17.10;16.40;;;16.00;99.90;;;;;;5074754;28;20555;-79
2022/09/24 11:51:31;;;;;;;16.60;15.90;;;16.00;99.90;;;;;;5075672;28;20558;-79
2022/09/24 11:54:07;;;;;;;15.37;14.77;;;15.90;99.90;;;;;;5070047;28;20509;-80
2022/09/24 11:56:39;;;;;;;16.70;16.00;;;16.00;1.00;;;;;;5072446;28;20453;-80
2022/09/24 11:59:17;;;;;;;16.00;15.40;;;16.00;1.00;;;;;;5071892;28;21242;-79
2022/09/24 12:01:51;;;;;;;15.50;14.80;;;16.00;1.00;;;;;;5084083;28;20448;-80
2022/09/24 12:04:24;;;;;;;17.10;15.80;;;16.00;1.00;;;;;;5072719;28;20465;-80
2022/09/24 12:06:59;;;;;;;16.33;15.70;;;16.00;1.00;;;;;;5076768;28;20443;-79
2022/09/24 12:09:33;;;;;;;16.00;15.40;;;16.00;99.90;;;;;;5065028;28;21161;-80
2022/09/24 12:12:06;;;;;;;16.90;16.00;;;16.00;99.90;;;;;;5068993;28;20454;-80
2022/09/24 12:14:45;;;;;;;15.67;15.07;;;16.00;99.90;;;;;;5068373;28;20475;-80
2022/09/24 12:17:18;;;;;;;15.90;15.20;;;16.00;99.90;;;;;;5074075;28;20463;-79
2022/09/24 12:19:53;;;;;;;18.13;17.23;;;16.00;99.90;;;;;;5076531;28;20556;-79
2022/09/24 12:22:26;;;;;;;17.17;16.10;;;16.00;1.00;;;;;;5080884;28;20519;-80
2022/09/24 12:24:57;;;;;;;16.13;15.40;;;16.00;1.00;;;;;;5075582;28;20504;-80
2022/09/24 12:27:31;;;;;;;16.77;15.97;;;16.00;1.00;;;;;;5077077;28;20469;-80
2022/09/24 12:32:58;;;;;;;17.77;16.97;;;15.90;1.00;;;;;;5069826;28;20458;-79
2022/09/24 12:35:47;;;;;;;17.70;16.67;;;15.90;1.00;;;;;;5081824;28;20525;-79
2022/09/24 12:38:20;;;;;;;17.43;16.63;;;16.00;1.00;;;;;;5080646;28;20475;-79
2022/09/24 12:41:18;;;;;;;17.70;16.90;;;16.00;1.00;;;;;;5076465;28;20512;-79
2022/09/24 12:43:51;;;;;;;18.60;17.50;;;16.00;1.00;;;;;;5081364;28;21034;-79
2022/09/24 12:46:22;;;;;;;16.50;15.70;;;16.00;1.00;;;;;;5078157;28;20486;-79
2022/09/24 12:48:53;;;;;;;17.17;16.37;;;16.00;1.00;;;;;;5084504;28;20458;-78
2022/09/24 12:51:22;;;;;;;16.87;16.17;;;16.00;1.00;;;;;;5077924;28;20499;-78
2022/09/24 12:54:17;;;;;;;17.10;16.40;;;16.00;1.00;;;;;;5074522;28;20828;-79
2022/09/24 12:56:45;;;;;;;16.93;16.23;;;16.00;1.00;;;;;;5082771;28;20461;-78
2022/09/24 12:59:25;;;;;;;16.90;16.20;;;16.00;1.00;;;;;;5084597;28;20588;-79
2022/09/24 13:01:53;;;;;;;16.87;16.03;;;16.00;1.00;;;;;;5073443;28;20556;-80
2022/09/24 13:04:30;;;;;;;17.77;16.88;;;16.00;1.00;;;;;;5065658;28;20442;-79
2022/09/24 13:06:58;;;;;;;16.80;16.00;;;16.00;1.00;;;;;;5077558;28;20648;-79
2022/09/24 13:09:34;;;;;;;17.03;16.23;;;15.90;1.00;;;;;;5078693;28;20457;-80
2022/09/24 13:12:05;;;;;;;17.97;17.07;;;15.90;1.00;;;;;;5087422;28;20514;-79
2022/09/24 13:14:35;;;;;;;15.57;14.77;;;15.90;1.00;;;;;;5074901;28;20918;-79
2022/09/24 13:17:06;;;;;;;15.77;15.07;;;15.90;1.00;;;;;;5091477;28;20978;-80
2022/09/24 13:19:37;;;;;;;16.95;16.15;;;15.90;1.00;;;;;;5074273;28;20445;-80
2022/09/24 13:22:07;;;;;;;16.57;15.87;;;15.90;1.00;;;;;;5078977;28;20208;-79
2022/09/24 13:24:49;;;;;;;17.20;16.50;;;16.00;1.00;;;;;;5089611;28;20530;-80